Time;durP1;ratioP1;P1;durP2;ratioP2;P2;SDS_P1;SDS_P2;PMS_P1;PMS_P2;Temp;Humidity;BMP_temperature;BMP_pressure;BME280_temperature;BME280_humidity;BME280_pressure;Samples;Min_cycle;Max_cycle;Signal;HPM_P1;HPM_P2
2023/04/09 00:00:22;;;;;;;61.45;38.15;;;;;;;;;;4903689;28;20071;-71
2023/04/09 00:02:47;;;;;;;64.75;38.92;;;;;;;;;;4950218;28;20508;-73
2023/04/09 00:05:13;;;;;;;64.10;39.22;;;;;;;;;;4917269;28;20126;-73
2023/04/09 00:07:38;;;;;;;70.68;39.22;;;;;;;;;;4915283;28;20046;-72
2023/04/09 00:10:04;;;;;;;62.47;38.50;;;;;;;;;;4919837;28;20488;-72
2023/04/09 00:12:29;;;;;;;67.78;41.10;;;;;;;;;;4918718;28;20055;-73
2023/04/09 00:14:55;;;;;;;65.80;39.97;;;;;;;;;;4920614;28;20162;-71
2023/04/09 00:17:22;;;;;;;66.75;39.97;;;;;;;;;;4918827;28;22116;-73
2023/04/09 00:19:48;;;;;;;71.40;42.08;;;;;;;;;;4920619;28;20413;-73
2023/04/09 00:22:15;;;;;;;68.40;41.08;;;;;;;;;;4916716;28;20555;-68
2023/04/09 00:24:42;;;;;;;72.75;41.63;;;;;;;;;;4913303;28;20043;-71
2023/04/09 00:27:07;;;;;;;67.88;41.05;;;;;;;;;;4912522;28;20112;-71
2023/04/09 00:29:33;;;;;;;69.03;40.03;;;;;;;;;;4920025;28;20439;-72
2023/04/09 00:31:58;;;;;;;68.47;41.05;;;;;;;;;;4918519;28;20078;-72
2023/04/09 00:34:23;;;;;;;73.30;42.72;;;;;;;;;;4914579;28;20040;-71
2023/04/09 00:36:49;;;;;;;69.50;41.45;;;;;;;;;;4902266;28;20145;-69
2023/04/09 00:39:14;;;;;;;74.63;42.53;;;;;;;;;;4916932;28;20455;-73
2023/04/09 00:41:39;;;;;;;70.28;41.90;;;;;;;;;;4920524;28;22380;-66
2023/04/09 00:44:05;;;;;;;72.57;41.28;;;;;;;;;;4919804;28;20035;-68
2023/04/09 00:46:30;;;;;;;71.32;41.88;;;;;;;;;;4919026;28;20558;-66
2023/04/09 00:48:56;;;;;;;70.68;41.42;;;;;;;;;;4947685;28;20063;-66
2023/04/09 00:51:23;;;;;;;72.03;43.03;;;;;;;;;;4917681;28;20035;-66
2023/04/09 00:53:49;;;;;;;70.70;42.03;;;;;;;;;;4918541;28;20557;-67
2023/04/09 00:56:15;;;;;;;70.93;43.05;;;;;;;;;;4923079;28;20090;-66
2023/04/09 00:58:41;;;;;;;78.57;44.95;;;;;;;;;;4923047;28;20032;-66
2023/04/09 01:01:06;;;;;;;77.47;43.85;;;;;;;;;;4912252;28;20566;-67
2023/04/09 01:03:31;;;;;;;74.32;43.05;;;;;;;;;;4918920;28;20047;-66
2023/04/09 01:06:32;;;;;;;74.75;42.42;;;;;;;;;;4918368;28;20047;-66
2023/04/09 01:09:12;;;;;;;77.53;43.72;;;;;;;;;;4989976;28;20125;-66
2023/04/09 01:11:45;;;;;;;74.65;42.78;;;;;;;;;;4923880;28;20039;-67
2023/04/09 01:14:13;;;;;;;76.72;44.33;;;;;;;;;;4918250;28;20044;-66
2023/04/09 01:16:43;;;;;;;75.40;43.08;;;;;;;;;;4916081;28;20650;-66
2023/04/09 01:19:10;;;;;;;76.97;42.97;;;;;;;;;;4912269;28;20047;-65
2023/04/09 01:21:37;;;;;;;80.10;42.60;;;;;;;;;;4918133;28;20069;-66
2023/04/09 01:24:05;;;;;;;81.65;43.30;;;;;;;;;;4921871;28;20036;-66
2023/04/09 01:26:39;;;;;;;79.90;44.58;;;;;;;;;;4916918;28;20078;-65
2023/04/09 01:29:06;;;;;;;73.90;43.42;;;;;;;;;;4915395;28;20039;-65
2023/04/09 01:31:35;;;;;;;73.72;43.50;;;;;;;;;;4917374;28;20046;-66
2023/04/09 01:34:01;;;;;;;77.35;43.92;;;;;;;;;;4918416;28;20126;-66
2023/04/09 01:36:30;;;;;;;80.68;44.72;;;;;;;;;;4920392;28;20036;-66
2023/04/09 01:38:59;;;;;;;77.57;43.63;;;;;;;;;;4920649;28;20056;-66
2023/04/09 01:41:25;;;;;;;78.78;44.10;;;;;;;;;;4931990;28;20051;-67
2023/04/09 01:43:51;;;;;;;77.03;44.13;;;;;;;;;;4920010;28;20120;-67
2023/04/09 01:46:17;;;;;;;77.68;43.63;;;;;;;;;;4921584;28;20035;-66
2023/04/09 01:48:43;;;;;;;79.25;44.58;;;;;;;;;;4919247;28;20069;-65
2023/04/09 01:51:09;;;;;;;76.85;42.92;;;;;;;;;;4915118;28;20483;-65
2023/04/09 01:53:35;;;;;;;81.15;44.13;;;;;;;;;;4911326;28;20283;-66
2023/04/09 01:56:02;;;;;;;76.53;43.15;;;;;;;;;;4932946;28;20142;-66
2023/04/09 01:58:27;;;;;;;72.70;43.17;;;;;;;;;;4919464;28;20160;-65
2023/04/09 02:01:00;;;;;;;75.32;42.67;;;;;;;;;;4916914;28;20176;-65
2023/04/09 02:03:25;;;;;;;;;;;;;;;;;;4918640;28;20031;-66
2023/04/09 02:06:00;;;;;;;76.30;40.67;;;;;;;;;;4913629;28;19975;-66
2023/04/09 02:08:26;;;;;;;74.20;40.85;;;;;;;;;;4916276;28;20031;-66
2023/04/09 02:10:55;;;;;;;76.10;41.15;;;;;;;;;;4917664;28;20122;-67
2023/04/09 02:13:21;;;;;;;71.75;40.92;;;;;;;;;;4918089;28;20725;-67
2023/04/09 02:15:49;;;;;;;71.13;41.22;;;;;;;;;;4923029;28;20714;-66
2023/04/09 02:18:28;;;;;;;68.10;39.72;;;;;;;;;;4918039;28;20052;-66
2023/04/09 02:20:54;;;;;;;68.03;39.55;;;;;;;;;;4918950;28;20043;-67
2023/04/09 02:23:20;;;;;;;70.68;41.40;;;;;;;;;;4917672;28;23870;-65
2023/04/09 02:25:45;;;;;;;68.13;39.60;;;;;;;;;;4914989;28;20039;-65
2023/04/09 02:28:10;;;;;;;70.60;40.25;;;;;;;;;;4916332;28;20144;-66
2023/04/09 02:30:36;;;;;;;69.20;39.60;;;;;;;;;;4932578;28;20042;-66
2023/04/09 02:33:01;;;;;;;68.85;39.05;;;;;;;;;;4913494;28;20123;-66
2023/04/09 02:35:26;;;;;;;71.45;40.85;;;;;;;;;;4912070;28;20459;-67
2023/04/09 02:37:51;;;;;;;69.03;40.55;;;;;;;;;;4915317;28;20048;-66
2023/04/09 02:40:17;;;;;;;70.85;39.05;;;;;;;;;;4920463;28;20051;-67
2023/04/09 02:42:42;;;;;;;73.13;40.40;;;;;;;;;;4916255;28;20714;-66
2023/04/09 02:45:07;;;;;;;71.50;40.88;;;;;;;;;;4909855;28;20043;-66
2023/04/09 02:47:33;;;;;;;68.57;38.53;;;;;;;;;;4923501;28;20043;-66
2023/04/09 02:49:58;;;;;;;71.95;39.95;;;;;;;;;;4917173;28;20047;-68
2023/04/09 02:52:24;;;;;;;72.28;39.88;;;;;;;;;;4919625;28;20047;-68
2023/04/09 02:54:50;;;;;;;66.68;38.80;;;;;;;;;;4915495;28;20420;-67
2023/04/09 02:57:16;;;;;;;72.68;39.22;;;;;;;;;;4910234;28;20105;-66
2023/04/09 02:59:41;;;;;;;74.35;41.10;;;;;;;;;;4916585;28;20059;-67
2023/04/09 03:02:10;;;;;;;70.72;39.22;;;;;;;;;;4912835;28;20129;-67
2023/04/09 03:04:38;;;;;;;70.88;38.67;;;;;;;;;;4916449;28;20039;-67
2023/04/09 03:07:03;;;;;;;71.15;39.33;;;;;;;;;;4945700;28;20055;-67
2023/04/09 03:09:29;;;;;;;72.47;39.08;;;;;;;;;;4919895;28;20177;-67
2023/04/09 03:11:56;;;;;;;68.85;38.72;;;;;;;;;;4919071;28;21853;-67
2023/04/09 03:14:21;;;;;;;69.28;38.15;;;;;;;;;;4917341;28;20043;-67
2023/04/09 03:16:46;;;;;;;73.35;38.28;;;;;;;;;;4917559;28;20047;-67
2023/04/09 03:19:12;;;;;;;67.70;38.65;;;;;;;;;;4909607;28;20051;-65
2023/04/09 03:21:37;;;;;;;69.00;37.30;;;;;;;;;;4916582;28;20047;-66
2023/04/09 03:24:03;;;;;;;66.82;37.15;;;;;;;;;;4916236;28;20031;-66
2023/04/09 03:26:34;;;;;;;69.47;36.67;;;;;;;;;;4917403;28;20046;-66
2023/04/09 03:29:00;;;;;;;66.70;37.95;;;;;;;;;;4914704;28;20039;-66
2023/04/09 03:31:27;;;;;;;70.00;36.25;;;;;;;;;;4917138;28;20310;-66
2023/04/09 03:33:53;;;;;;;66.15;36.58;;;;;;;;;;4915838;28;20038;-66
2023/04/09 03:36:20;;;;;;;63.53;36.95;;;;;;;;;;4916439;28;20114;-66
2023/04/09 03:38:45;;;;;;;72.18;37.05;;;;;;;;;;4915967;28;20757;-66
2023/04/09 03:41:11;;;;;;;65.15;35.78;;;;;;;;;;4914376;28;20072;-66
2023/04/09 03:43:36;;;;;;;67.80;37.08;;;;;;;;;;4911664;28;20077;-66
2023/04/09 03:46:12;;;;;;;71.03;37.28;;;;;;;;;;4921223;28;20230;-66
2023/04/09 03:48:41;;;;;;;69.20;38.10;;;;;;;;;;4916541;28;20063;-66
2023/04/09 03:51:10;;;;;;;67.35;35.35;;;;;;;;;;4920414;28;20089;-66
2023/04/09 03:53:35;;;;;;;65.55;35.90;;;;;;;;;;4918102;28;20046;-65
2023/04/09 03:56:02;;;;;;;70.05;37.40;;;;;;;;;;4928752;28;22023;-66
2023/04/09 03:58:28;;;;;;;68.95;36.90;;;;;;;;;;4917948;28;20039;-66
2023/04/09 04:00:53;;;;;;;71.85;37.80;;;;;;;;;;4918865;28;20039;-66
2023/04/09 04:03:18;;;;;;;67.43;36.53;;;;;;;;;;4919578;28;20110;-67
2023/04/09 04:05:44;;;;;;;65.90;35.88;;;;;;;;;;4919561;28;20043;-65
2023/04/09 04:08:09;;;;;;;67.50;35.47;;;;;;;;;;4915255;28;20040;-66
2023/04/09 04:10:36;;;;;;;65.88;35.92;;;;;;;;;;4919500;28;20035;-66
2023/04/09 04:13:02;;;;;;;65.78;35.85;;;;;;;;;;4935333;28;20038;-67
2023/04/09 04:15:27;;;;;;;68.35;36.60;;;;;;;;;;4919504;28;20047;-65
2023/04/09 04:17:53;;;;;;;75.00;38.50;;;;;;;;;;4921345;28;20294;-65
2023/04/09 04:20:18;;;;;;;75.43;37.47;;;;;;;;;;4918977;28;20099;-65
2023/04/09 04:22:44;;;;;;;71.78;35.85;;;;;;;;;;4917475;28;20064;-66
2023/04/09 04:25:11;;;;;;;66.93;36.85;;;;;;;;;;4921050;28;20104;-65
2023/04/09 04:27:42;;;;;;;73.68;37.38;;;;;;;;;;4918072;28;20755;-65
2023/04/09 04:30:07;;;;;;;64.47;36.58;;;;;;;;;;4918935;28;20140;-66
2023/04/09 04:32:33;;;;;;;71.65;37.33;;;;;;;;;;4917341;28;20043;-66
2023/04/09 04:34:58;;;;;;;70.20;36.42;;;;;;;;;;4914717;28;20448;-67
2023/04/09 04:37:23;;;;;;;74.40;35.83;;;;;;;;;;4918265;28;20657;-66
2023/04/09 04:39:49;;;;;;;67.45;35.97;;;;;;;;;;4934460;28;20051;-66
2023/04/09 04:42:16;;;;;;;68.40;34.67;;;;;;;;;;4922338;28;20039;-67
2023/04/09 04:44:42;;;;;;;65.25;34.30;;;;;;;;;;4923510;28;20413;-66
2023/04/09 04:47:07;;;;;;;67.35;35.25;;;;;;;;;;4919977;28;20039;-66
2023/04/09 04:49:32;;;;;;;70.43;35.40;;;;;;;;;;4917766;28;20079;-66
2023/04/09 04:51:57;;;;;;;66.63;33.65;;;;;;;;;;4919249;28;20062;-65
2023/04/09 04:54:23;;;;;;;68.18;35.55;;;;;;;;;;4917395;28;20043;-67
2023/04/09 04:56:48;;;;;;;64.30;34.90;;;;;;;;;;4918669;28;20039;-67
2023/04/09 04:59:13;;;;;;;64.20;33.92;;;;;;;;;;4916861;28;20062;-66
2023/04/09 05:01:38;;;;;;;72.10;36.85;;;;;;;;;;4916474;28;20047;-66
2023/04/09 05:04:06;;;;;;;68.63;35.50;;;;;;;;;;4914517;28;20230;-65
2023/04/09 05:06:32;;;;;;;68.28;35.63;;;;;;;;;;4917295;28;20200;-66
2023/04/09 05:09:00;;;;;;;68.13;35.85;;;;;;;;;;4945417;28;20039;-67
2023/04/09 05:11:25;;;;;;;63.00;33.22;;;;;;;;;;4917426;28;20043;-65
2023/04/09 05:13:51;;;;;;;69.13;36.38;;;;;;;;;;4918597;28;20275;-66
2023/04/09 05:16:17;;;;;;;62.08;34.53;;;;;;;;;;4919361;28;20142;-66
2023/04/09 05:18:46;;;;;;;65.30;34.88;;;;;;;;;;4906690;28;20123;-65
2023/04/09 05:21:11;;;;;;;63.92;34.00;;;;;;;;;;4947490;28;20062;-63
2023/04/09 05:23:36;;;;;;;68.97;34.72;;;;;;;;;;4901373;28;20035;-66
2023/04/09 05:26:02;;;;;;;60.35;33.13;;;;;;;;;;4919191;28;20055;-66
2023/04/09 05:28:27;;;;;;;61.15;33.72;;;;;;;;;;4917945;28;20066;-65
2023/04/09 05:30:52;;;;;;;65.90;35.28;;;;;;;;;;4914335;28;20035;-65
2023/04/09 05:33:17;;;;;;;64.30;35.25;;;;;;;;;;4914041;28;20149;-66
2023/04/09 05:35:43;;;;;;;66.80;34.50;;;;;;;;;;4914679;28;20412;-65
2023/04/09 05:38:08;;;;;;;70.03;34.95;;;;;;;;;;4919255;28;20133;-66
2023/04/09 05:40:36;;;;;;;62.28;33.63;;;;;;;;;;4917845;28;20074;-66
2023/04/09 05:43:03;;;;;;;65.60;34.10;;;;;;;;;;4898272;28;20407;-66
2023/04/09 05:45:29;;;;;;;66.75;35.50;;;;;;;;;;4916372;28;20161;-65
2023/04/09 05:47:56;;;;;;;58.63;32.65;;;;;;;;;;4911642;28;20043;-65
2023/04/09 05:50:22;;;;;;;65.45;34.38;;;;;;;;;;4918110;28;20043;-64
2023/04/09 05:52:47;;;;;;;61.80;33.10;;;;;;;;;;4919547;28;20046;-66
2023/04/09 05:55:12;;;;;;;64.05;33.40;;;;;;;;;;4915391;28;20121;-66
2023/04/09 05:57:37;;;;;;;62.75;34.33;;;;;;;;;;4917107;28;20661;-64
2023/04/09 06:00:03;;;;;;;61.80;33.10;;;;;;;;;;4911441;28;20118;-65
2023/04/09 06:02:28;;;;;;;65.47;35.03;;;;;;;;;;4917870;28;22295;-65
2023/04/09 06:04:54;;;;;;;60.83;33.08;;;;;;;;;;4915378;28;20063;-65
2023/04/09 06:07:19;;;;;;;61.75;33.92;;;;;;;;;;4921518;28;20074;-65
2023/04/09 06:09:45;;;;;;;58.22;33.15;;;;;;;;;;4916918;28;20481;-64
2023/04/09 06:12:11;;;;;;;61.65;33.05;;;;;;;;;;4917863;28;20067;-65
2023/04/09 06:14:36;;;;;;;61.25;33.05;;;;;;;;;;4918996;28;20108;-64
2023/04/09 06:17:02;;;;;;;59.97;32.75;;;;;;;;;;4920052;28;20043;-65
2023/04/09 06:19:27;;;;;;;62.67;34.05;;;;;;;;;;4915012;28;20043;-64
2023/04/09 06:21:52;;;;;;;60.63;33.40;;;;;;;;;;4918030;28;20043;-65
2023/04/09 06:24:18;;;;;;;59.33;33.28;;;;;;;;;;4951122;28;20046;-66
2023/04/09 06:26:43;;;;;;;59.28;32.65;;;;;;;;;;4916792;28;20078;-65
2023/04/09 06:29:10;;;;;;;53.20;31.42;;;;;;;;;;4917494;28;20651;-66
2023/04/09 06:31:38;;;;;;;58.65;31.17;;;;;;;;;;4911505;28;20039;-66
2023/04/09 06:34:04;;;;;;;53.08;30.40;;;;;;;;;;4926436;28;20477;-66
2023/04/09 06:36:29;;;;;;;55.40;30.88;;;;;;;;;;4916829;28;20050;-65
2023/04/09 06:38:58;;;;;;;53.33;30.38;;;;;;;;;;4915521;28;20507;-65
2023/04/09 06:41:23;;;;;;;51.72;29.52;;;;;;;;;;4913630;28;20637;-65
2023/04/09 06:43:50;;;;;;;50.67;29.52;;;;;;;;;;4917124;28;20046;-65
2023/04/09 06:46:18;;;;;;;51.80;30.02;;;;;;;;;;4924166;28;20063;-66
2023/04/09 06:48:44;;;;;;;52.80;30.63;;;;;;;;;;4918226;28;20069;-66
2023/04/09 06:51:10;;;;;;;52.83;31.05;;;;;;;;;;4932777;28;20043;-68
2023/04/09 06:53:36;;;;;;;52.40;31.02;;;;;;;;;;4948161;28;20507;-65
2023/04/09 06:56:01;;;;;;;54.25;31.50;;;;;;;;;;4918885;28;20043;-65
2023/04/09 06:58:26;;;;;;;52.55;30.17;;;;;;;;;;4919244;28;20074;-66
2023/04/09 07:00:52;;;;;;;53.72;30.60;;;;;;;;;;4917947;28;20055;-66
2023/04/09 07:03:17;;;;;;;58.05;32.85;;;;;;;;;;4915507;28;20071;-65
2023/04/09 07:05:45;;;;;;;55.72;32.13;;;;;;;;;;4916965;28;20492;-65
2023/04/09 07:08:10;;;;;;;53.80;31.25;;;;;;;;;;4900287;28;20090;-65
2023/04/09 07:10:35;;;;;;;56.67;32.13;;;;;;;;;;4919408;28;20135;-65
2023/04/09 07:13:01;;;;;;;54.28;30.60;;;;;;;;;;4917968;28;20039;-66
2023/04/09 07:15:26;;;;;;;53.58;32.53;;;;;;;;;;4931463;28;20049;-66
2023/04/09 07:17:54;;;;;;;55.72;31.65;;;;;;;;;;4916211;28;20039;-66
2023/04/09 07:20:19;;;;;;;57.35;33.22;;;;;;;;;;4920207;28;20757;-66
2023/04/09 07:22:44;;;;;;;54.90;31.95;;;;;;;;;;4911322;28;20059;-66
2023/04/09 07:25:10;;;;;;;58.75;33.65;;;;;;;;;;4916450;28;20512;-66
2023/04/09 07:27:37;;;;;;;60.60;34.38;;;;;;;;;;4919623;28;20456;-65
2023/04/09 07:30:03;;;;;;;58.38;34.33;;;;;;;;;;4920112;28;20512;-64
2023/04/09 07:32:28;;;;;;;56.03;33.33;;;;;;;;;;4918410;28;20059;-66
2023/04/09 07:34:57;;;;;;;59.10;33.22;;;;;;;;;;4919667;28;20043;-65
2023/04/09 07:37:22;;;;;;;55.58;32.05;;;;;;;;;;4915884;28;20093;-64
2023/04/09 07:39:48;;;;;;;54.15;32.42;;;;;;;;;;4952492;28;20054;-65
2023/04/09 07:42:13;;;;;;;54.28;33.25;;;;;;;;;;4917637;28;20078;-65
2023/04/09 07:44:39;;;;;;;55.45;32.65;;;;;;;;;;4916621;28;20075;-64
2023/04/09 07:47:06;;;;;;;51.95;31.80;;;;;;;;;;4951709;28;20047;-65
2023/04/09 07:49:31;;;;;;;56.60;32.70;;;;;;;;;;4919503;28;20333;-66
2023/04/09 07:51:57;;;;;;;56.10;32.30;;;;;;;;;;4916470;28;20062;-65
2023/04/09 07:54:23;;;;;;;52.22;31.20;;;;;;;;;;4917174;28;20412;-66
2023/04/09 07:56:51;;;;;;;56.25;31.52;;;;;;;;;;4913454;28;20264;-65
2023/04/09 07:59:19;;;;;;;61.70;34.17;;;;;;;;;;4916811;28;20046;-64
2023/04/09 08:01:44;;;;;;;60.67;33.55;;;;;;;;;;4911153;28;20086;-65
2023/04/09 08:04:11;;;;;;;53.22;31.90;;;;;;;;;;4918252;28;20046;-66
2023/04/09 08:06:37;;;;;;;53.33;31.83;;;;;;;;;;4919736;28;20069;-65
2023/04/09 08:09:02;;;;;;;54.10;32.63;;;;;;;;;;4909007;28;20773;-63
2023/04/09 08:11:30;;;;;;;59.70;33.65;;;;;;;;;;4910070;28;20287;-64
2023/04/09 08:13:56;;;;;;;55.28;33.88;;;;;;;;;;4895011;28;20243;-65
2023/04/09 08:16:23;;;;;;;56.08;33.28;;;;;;;;;;4906367;28;20160;-65
2023/04/09 08:18:51;;;;;;;68.30;39.42;;;;;;;;;;4909679;28;20074;-65
2023/04/09 08:21:17;;;;;;;59.85;33.78;;;;;;;;;;4910873;28;20050;-64
2023/04/09 08:23:44;;;;;;;55.47;32.40;;;;;;;;;;4910926;28;20104;-65
2023/04/09 08:26:10;;;;;;;53.72;32.85;;;;;;;;;;4908658;28;20596;-66
2023/04/09 08:28:35;;;;;;;58.00;33.22;;;;;;;;;;4914377;28;20043;-63
2023/04/09 08:31:00;;;;;;;57.80;32.67;;;;;;;;;;4911102;28;20178;-66
2023/04/09 08:33:26;;;;;;;53.22;32.58;;;;;;;;;;4914555;28;20067;-65
2023/04/09 08:35:51;;;;;;;59.45;33.30;;;;;;;;;;4909690;28;20045;-64
2023/04/09 08:38:17;;;;;;;54.90;33.40;;;;;;;;;;4913442;28;20047;-69
2023/04/09 08:40:43;;;;;;;49.90;30.92;;;;;;;;;;4906459;28;20569;-71
2023/04/09 08:43:09;;;;;;;54.00;32.78;;;;;;;;;;4906924;28;20055;-69
2023/04/09 08:45:37;;;;;;;53.60;31.13;;;;;;;;;;4906765;28;20042;-68
2023/04/09 08:48:02;;;;;;;55.95;31.48;;;;;;;;;;4911963;28;20432;-69
2023/04/09 08:50:31;;;;;;;58.10;33.78;;;;;;;;;;4908074;28;20239;-69
2023/04/09 08:53:01;;;;;;;54.20;32.75;;;;;;;;;;4913212;28;20650;-69
2023/04/09 08:55:26;;;;;;;56.53;31.92;;;;;;;;;;4913668;28;20126;-69
2023/04/09 08:57:51;;;;;;;57.65;33.08;;;;;;;;;;4916822;28;20039;-69
2023/04/09 09:00:16;;;;;;;55.92;32.47;;;;;;;;;;4910981;28;20098;-70
2023/04/09 09:03:14;;;;;;;54.95;31.63;;;;;;;;;;4907904;28;20097;-69
2023/04/09 09:05:44;;;;;;;52.13;30.77;;;;;;;;;;4922647;28;20407;-69
2023/04/09 09:08:10;;;;;;;55.08;30.52;;;;;;;;;;4907814;28;20035;-71
2023/04/09 09:10:39;;;;;;;55.25;31.75;;;;;;;;;;4922285;28;20135;-68
2023/04/09 09:13:34;;;;;;;51.20;30.85;;;;;;;;;;4910955;28;20063;-70
2023/04/09 09:16:20;;;;;;;53.88;31.17;;;;;;;;;;4901351;28;20063;-71
2023/04/09 09:18:45;;;;;;;51.97;31.63;;;;;;;;;;4906745;28;21904;-69
2023/04/09 09:21:18;;;;;;;52.50;31.33;;;;;;;;;;4910300;28;20044;-70
2023/04/09 09:23:50;;;;;;;52.13;31.30;;;;;;;;;;4903911;28;20255;-68
2023/04/09 09:26:26;;;;;;;48.88;30.00;;;;;;;;;;4911370;28;20051;-69
2023/04/09 09:28:52;;;;;;;55.15;31.75;;;;;;;;;;4905579;28;20318;-68
2023/04/09 09:31:18;;;;;;;54.38;32.15;;;;;;;;;;4909492;28;20423;-69
2023/04/09 09:33:43;;;;;;;55.22;32.97;;;;;;;;;;4908862;28;20177;-70
2023/04/09 09:36:09;;;;;;;51.47;31.67;;;;;;;;;;4908761;28;20067;-69
2023/04/09 09:38:52;;;;;;;48.50;29.40;;;;;;;;;;4915949;28;20040;-68
2023/04/09 09:41:18;;;;;;;49.67;29.85;;;;;;;;;;4910732;28;20488;-71
2023/04/09 09:43:43;;;;;;;48.55;28.63;;;;;;;;;;4913049;28;20439;-70
2023/04/09 09:46:11;;;;;;;52.38;30.75;;;;;;;;;;4912401;28;20432;-69
2023/04/09 09:48:39;;;;;;;51.03;30.85;;;;;;;;;;4907643;28;20046;-70
2023/04/09 09:51:14;;;;;;;49.17;30.73;;;;;;;;;;4910417;28;20082;-70
2023/04/09 09:53:41;;;;;;;51.60;31.50;;;;;;;;;;4913766;28;20958;-72
2023/04/09 09:56:10;;;;;;;50.83;30.77;;;;;;;;;;4916583;28;20544;-72
2023/04/09 09:58:53;;;;;;;51.38;30.45;;;;;;;;;;4917862;28;20132;-72
2023/04/09 10:01:23;;;;;;;51.97;31.23;;;;;;;;;;4912808;28;20086;-71
2023/04/09 10:03:48;;;;;;;49.45;31.08;;;;;;;;;;4914926;28;20411;-69
2023/04/09 10:06:14;;;;;;;49.38;30.65;;;;;;;;;;4912826;28;20043;-70
2023/04/09 10:08:40;;;;;;;44.55;28.33;;;;;;;;;;4907258;28;20097;-69
2023/04/09 10:11:08;;;;;;;51.78;30.40;;;;;;;;;;4909385;28;20393;-70
2023/04/09 10:13:38;;;;;;;50.97;30.27;;;;;;;;;;4910160;28;20708;-71
2023/04/09 10:16:03;;;;;;;51.17;32.15;;;;;;;;;;4907290;28;20523;-70
2023/04/09 10:18:32;;;;;;;44.70;29.77;;;;;;;;;;4938191;28;20066;-68
2023/04/09 10:20:58;;;;;;;47.25;29.10;;;;;;;;;;4908873;28;20051;-70
2023/04/09 10:23:36;;;;;;;45.75;28.95;;;;;;;;;;4914282;28;20404;-69
2023/04/09 10:26:03;;;;;;;47.17;28.83;;;;;;;;;;4908403;28;20047;-69
2023/04/09 10:28:29;;;;;;;44.33;29.25;;;;;;;;;;4896529;28;20397;-69
2023/04/09 10:30:54;;;;;;;44.65;28.17;;;;;;;;;;4911711;28;20318;-68
2023/04/09 10:33:28;;;;;;;45.67;28.77;;;;;;;;;;4913034;28;20095;-69
2023/04/09 10:35:54;;;;;;;43.55;29.48;;;;;;;;;;4880219;28;20450;-71
2023/04/09 10:38:33;;;;;;;44.53;28.35;;;;;;;;;;4914690;28;20035;-70
2023/04/09 10:40:58;;;;;;;44.08;28.15;;;;;;;;;;4911094;28;20130;-70
2023/04/09 10:43:26;;;;;;;42.85;27.60;;;;;;;;;;4909404;28;20180;-71
2023/04/09 10:45:53;;;;;;;46.33;29.83;;;;;;;;;;4913254;28;20043;-70
2023/04/09 10:48:18;;;;;;;45.97;29.63;;;;;;;;;;4910144;28;20055;-69
2023/04/09 10:50:49;;;;;;;45.33;29.35;;;;;;;;;;4917002;28;20232;-70
2023/04/09 10:53:22;;;;;;;47.92;29.95;;;;;;;;;;4913686;28;20991;-70
2023/04/09 10:55:49;;;;;;;47.08;29.58;;;;;;;;;;4915185;28;20466;-72
2023/04/09 10:58:15;;;;;;;47.28;29.50;;;;;;;;;;4919811;28;20088;-71
2023/04/09 11:00:44;;;;;;;47.95;30.48;;;;;;;;;;4917837;28;20051;-71
2023/04/09 11:03:09;;;;;;;47.70;29.00;;;;;;;;;;4914653;28;20223;-71
2023/04/09 11:05:37;;;;;;;45.45;29.38;;;;;;;;;;4917367;28;20043;-71
2023/04/09 11:08:09;;;;;;;44.38;28.90;;;;;;;;;;4916519;28;20436;-70
2023/04/09 11:10:35;;;;;;;45.20;28.88;;;;;;;;;;4920240;28;20442;-70
2023/04/09 11:13:01;;;;;;;48.63;29.63;;;;;;;;;;4914124;28;20169;-70
2023/04/09 11:15:27;;;;;;;45.22;29.52;;;;;;;;;;4914976;28;20043;-70
2023/04/09 11:17:52;;;;;;;45.42;29.88;;;;;;;;;;4894032;28;20113;-71
2023/04/09 11:20:23;;;;;;;48.88;30.95;;;;;;;;;;4907037;28;20097;-71
2023/04/09 11:22:49;;;;;;;47.50;29.55;;;;;;;;;;4917476;28;20080;-70
2023/04/09 11:25:19;;;;;;;48.78;30.65;;;;;;;;;;4915352;28;20044;-72
2023/04/09 11:27:45;;;;;;;47.03;30.05;;;;;;;;;;4918368;28;20035;-70
2023/04/09 11:30:10;;;;;;;49.20;31.48;;;;;;;;;;4914109;28;20100;-71
2023/04/09 11:32:35;;;;;;;48.28;31.15;;;;;;;;;;4950228;28;20070;-71
2023/04/09 11:35:03;;;;;;;48.13;32.00;;;;;;;;;;4918558;28;20036;-71
2023/04/09 11:37:29;;;;;;;50.50;32.15;;;;;;;;;;4917002;28;20035;-70
2023/04/09 11:39:57;;;;;;;48.78;31.17;;;;;;;;;;4911922;28;20372;-72
2023/04/09 11:42:29;;;;;;;44.95;30.25;;;;;;;;;;4932804;28;20085;-72
2023/04/09 11:44:54;;;;;;;;;;;;;;;;;;4919668;28;20058;-70
2023/04/09 11:47:22;;;;;;;47.88;31.60;;;;;;;;;;4919329;28;19962;-70
2023/04/09 11:49:48;;;;;;;47.70;31.52;;;;;;;;;;4916441;28;20553;-71
2023/04/09 11:52:17;;;;;;;43.83;30.58;;;;;;;;;;4931420;28;20040;-70
2023/04/09 11:54:48;;;;;;;45.63;31.75;;;;;;;;;;4918614;28;20046;-70
2023/04/09 11:57:13;;;;;;;48.78;31.80;;;;;;;;;;4928873;28;22098;-71
2023/04/09 11:59:40;;;;;;;47.28;32.17;;;;;;;;;;4915959;28;20099;-71
2023/04/09 12:02:06;;;;;;;42.90;30.42;;;;;;;;;;4917769;28;20594;-70
2023/04/09 12:04:32;;;;;;;42.78;29.73;;;;;;;;;;4917518;28;20070;-71
2023/04/09 12:06:57;;;;;;;43.22;29.95;;;;;;;;;;4916841;28;20027;-69
2023/04/09 12:09:23;;;;;;;42.30;29.92;;;;;;;;;;4913027;28;20031;-72
2023/04/09 12:11:48;;;;;;;44.08;30.52;;;;;;;;;;4922999;28;20142;-70
2023/04/09 12:14:15;;;;;;;46.08;31.73;;;;;;;;;;4915076;28;20028;-70
2023/04/09 12:16:42;;;;;;;43.85;30.48;;;;;;;;;;4912307;28;20480;-69
2023/04/09 12:19:08;;;;;;;40.28;28.58;;;;;;;;;;4916891;28;20039;-72
2023/04/09 12:21:46;;;;;;;39.75;29.88;;;;;;;;;;4916851;28;20721;-70
2023/04/09 12:24:12;;;;;;;37.88;28.27;;;;;;;;;;4911519;28;20047;-70
2023/04/09 12:26:37;;;;;;;43.88;29.20;;;;;;;;;;4920395;28;20089;-72
2023/04/09 12:29:09;;;;;;;42.97;29.35;;;;;;;;;;4915017;28;20041;-70
2023/04/09 12:31:35;;;;;;;40.42;28.25;;;;;;;;;;4912916;28;20032;-73
2023/04/09 12:34:05;;;;;;;39.28;27.88;;;;;;;;;;4914647;28;20081;-70
2023/04/09 12:36:33;;;;;;;39.70;28.27;;;;;;;;;;4917321;28;20540;-71
2023/04/09 12:38:59;;;;;;;41.65;29.77;;;;;;;;;;4913221;28;20105;-71
2023/04/09 12:41:29;;;;;;;39.35;28.52;;;;;;;;;;4916881;28;20137;-72
2023/04/09 12:43:54;;;;;;;39.20;28.33;;;;;;;;;;4917973;28;20037;-71
2023/04/09 12:46:22;;;;;;;41.70;29.27;;;;;;;;;;4918385;28;20044;-72
2023/04/09 12:48:49;;;;;;;45.65;31.27;;;;;;;;;;4913271;28;20452;-71
2023/04/09 12:51:15;;;;;;;50.05;31.77;;;;;;;;;;4914919;28;20054;-71
2023/04/09 12:53:40;;;;;;;48.55;31.33;;;;;;;;;;4916097;28;20035;-71
2023/04/09 12:56:06;;;;;;;47.58;32.00;;;;;;;;;;4916930;28;20047;-71
2023/04/09 12:58:34;;;;;;;48.53;32.80;;;;;;;;;;4917770;28;20500;-71
2023/04/09 13:01:03;;;;;;;56.40;33.53;;;;;;;;;;4916050;28;20101;-70
2023/04/09 13:03:28;;;;;;;50.85;32.85;;;;;;;;;;4915743;28;20420;-70
2023/04/09 13:05:53;;;;;;;49.00;33.08;;;;;;;;;;4918439;28;20279;-72
2023/04/09 13:08:18;;;;;;;49.10;33.05;;;;;;;;;;4915510;28;20043;-72
2023/04/09 13:10:44;;;;;;;50.10;33.72;;;;;;;;;;4917963;28;20039;-71
2023/04/09 13:13:12;;;;;;;50.08;33.78;;;;;;;;;;4916772;28;20051;-71
2023/04/09 13:15:44;;;;;;;51.60;34.35;;;;;;;;;;4912535;28;20042;-70
2023/04/09 13:18:13;;;;;;;49.47;32.90;;;;;;;;;;4909526;28;20042;-71
2023/04/09 13:20:38;;;;;;;45.70;31.70;;;;;;;;;;4930265;28;20060;-73
2023/04/09 13:23:04;;;;;;;46.53;30.65;;;;;;;;;;4945591;28;20112;-71
2023/04/09 13:25:30;;;;;;;49.38;31.98;;;;;;;;;;4948397;28;20213;-71
2023/04/09 13:27:55;;;;;;;48.40;31.70;;;;;;;;;;4916545;28;20278;-71
2023/04/09 13:30:21;;;;;;;46.15;31.10;;;;;;;;;;4913489;28;20546;-70
2023/04/09 13:32:48;;;;;;;47.35;31.73;;;;;;;;;;4917050;28;20047;-72
2023/04/09 13:35:14;;;;;;;46.70;31.67;;;;;;;;;;4915430;28;20198;-71
2023/04/09 13:37:39;;;;;;;49.10;32.97;;;;;;;;;;4922420;28;20037;-72
2023/04/09 13:40:08;;;;;;;45.97;31.98;;;;;;;;;;4915393;28;20043;-71
2023/04/09 13:42:33;;;;;;;62.50;41.15;;;;;;;;;;4912444;28;20042;-68
2023/04/09 13:44:59;;;;;;;51.72;34.28;;;;;;;;;;4918241;28;20035;-71
2023/04/09 13:47:26;;;;;;;48.13;33.10;;;;;;;;;;4917398;28;20381;-69
2023/04/09 13:49:52;;;;;;;46.75;31.35;;;;;;;;;;4920565;28;20048;-70
2023/04/09 13:52:17;;;;;;;49.50;31.80;;;;;;;;;;4915586;28;20486;-69
2023/04/09 13:54:42;;;;;;;46.80;32.08;;;;;;;;;;4910411;28;20037;-70
2023/04/09 13:57:09;;;;;;;51.15;32.35;;;;;;;;;;4941975;28;20062;-68
2023/04/09 13:59:34;;;;;;;46.55;31.35;;;;;;;;;;4914032;28;20192;-70
2023/04/09 14:02:00;;;;;;;47.28;31.65;;;;;;;;;;4916616;28;20151;-70
2023/04/09 14:04:25;;;;;;;51.08;33.90;;;;;;;;;;4914903;28;20611;-70
2023/04/09 14:06:50;;;;;;;52.53;36.17;;;;;;;;;;4914337;28;20091;-71
2023/04/09 14:09:18;;;;;;;48.35;32.55;;;;;;;;;;4916194;28;20190;-69
2023/04/09 14:11:43;;;;;;;47.63;31.75;;;;;;;;;;4911869;28;20443;-70
2023/04/09 14:14:11;;;;;;;46.25;31.25;;;;;;;;;;4928197;28;20058;-71
2023/04/09 14:16:36;;;;;;;44.53;30.17;;;;;;;;;;4914757;28;20067;-71